createdAt,value
2022-10-17T00:03:38.042Z,98352.38
2022-10-17T00:07:40.043Z,98358.75
2022-10-17T00:11:42.118Z,98357.84
2022-10-17T00:15:44.883Z,98364.84
2022-10-17T00:19:46.948Z,98361.84
2022-10-17T00:23:49.192Z,98361.56
2022-10-17T00:27:51.206Z,98366.75
2022-10-17T00:31:57.331Z,98375.47
2022-10-17T00:36:26.346Z,98368.41
2022-10-17T00:40:28.727Z,98371.59
2022-10-17T00:44:30.726Z,98371.31
2022-10-17T00:48:32.849Z,98377.38
2022-10-17T00:52:35.392Z,98385.41
2022-10-17T00:56:40.349Z,98388.19
2022-10-17T01:00:43.507Z,98385.69
2022-10-17T01:04:48.455Z,98379.16
2022-10-17T01:08:50.465Z,98380.88
2022-10-17T01:13:00.709Z,98393.31
2022-10-17T01:17:18.433Z,98387.28
2022-10-17T01:21:34.554Z,98389.84
2022-10-17T01:25:51.727Z,98389.34
2022-10-17T01:30:25.917Z,98380.91
2022-10-17T01:34:47.183Z,98387.25
2022-10-17T01:38:57.329Z,98389.41
2022-10-17T01:43:19.737Z,98382.31
2022-10-17T01:47:26.857Z,98376.16
2022-10-17T01:51:58.976Z,98383.16
2022-10-17T01:56:04.791Z,98383.84
2022-10-17T02:00:13.620Z,98384.69
2022-10-17T02:04:16.440Z,98388.66
2022-10-17T02:08:26.808Z,98383.03
2022-10-17T02:12:49.902Z,98380.47
2022-10-17T02:17:05.655Z,98370.09
2022-10-17T02:21:20.107Z,98369.44
2022-10-17T02:25:40.124Z,98370.44
2022-10-17T02:30:06.379Z,98386.16
2022-10-17T02:34:34.690Z,98376.44
2022-10-17T02:38:38.162Z,98381.59
2022-10-17T02:42:43.886Z,98385.97
2022-10-17T02:46:55.933Z,98387.81
2022-10-17T02:51:12.781Z,98392.28
2022-10-17T02:55:22.263Z,98392.44
2022-10-17T02:59:28.583Z,98395.19
2022-10-17T03:03:32.711Z,98390.00
2022-10-17T03:07:36.853Z,98391.78
2022-10-17T03:11:38.938Z,98393.50
2022-10-17T03:15:42.877Z,98390.06
2022-10-17T03:19:45.001Z,98391.00
2022-10-17T03:23:47.144Z,98395.34
2022-10-17T03:27:50.051Z,98393.50
2022-10-17T03:31:52.058Z,98398.78
2022-10-17T03:35:54.912Z,98407.47
2022-10-17T03:39:57.348Z,98416.16
2022-10-17T03:44:00.443Z,98425.69
2022-10-17T03:48:03.232Z,98433.63
2022-10-17T03:52:06.069Z,98423.06
2022-10-17T03:56:15.692Z,98428.47
2022-10-17T04:00:18.643Z,98435.44
2022-10-17T04:04:29.492Z,98425.69
2022-10-17T04:08:34.763Z,98445.84
2022-10-17T04:12:43.500Z,98443.28
2022-10-17T04:16:45.673Z,98454.72
2022-10-17T04:20:52.659Z,98459.06
2022-10-17T04:24:55.125Z,98452.94
2022-10-17T04:29:08.528Z,98447.72
2022-10-17T04:33:10.545Z,98444.06
2022-10-17T04:37:12.608Z,98435.28
2022-10-17T04:41:17.084Z,98431.84
2022-10-17T04:45:19.271Z,98442.94
2022-10-17T04:49:22.834Z,98455.72
2022-10-17T04:53:30.619Z,98465.38
2022-10-17T04:57:37.421Z,98472.63
2022-10-17T05:01:49.844Z,98479.13
2022-10-17T05:05:53.476Z,98480.63
2022-10-17T05:09:55.566Z,98479.38
2022-10-17T05:14:02.000Z,98484.25
2022-10-17T05:18:06.778Z,98478.25
2022-10-17T05:22:09.587Z,98464.44
2022-10-17T05:26:12.453Z,98470.91
2022-10-17T05:30:14.485Z,98470.41
2022-10-17T05:34:16.580Z,98484.91
2022-10-17T05:38:20.547Z,98495.63
2022-10-17T05:42:24.427Z,98494.09
2022-10-17T05:46:26.866Z,98489.16
2022-10-17T05:50:29.081Z,98487.38
2022-10-17T05:54:39.033Z,98478.84
2022-10-17T05:58:52.579Z,98486.50
2022-10-17T06:03:05.094Z,98489.31
2022-10-17T06:07:07.173Z,98486.94
2022-10-17T06:11:10.774Z,98501.88
2022-10-17T06:15:13.854Z,98498.00
2022-10-17T06:19:18.752Z,98500.16
2022-10-17T06:23:21.794Z,98502.06
2022-10-17T06:27:38.936Z,98513.09
2022-10-17T06:31:41.288Z,98520.56
2022-10-17T06:35:43.756Z,98527.91
2022-10-17T06:39:45.917Z,98526.63
2022-10-17T06:43:51.433Z,98525.59
2022-10-17T06:48:19.481Z,98536.94
2022-10-17T06:52:42.846Z,98544.94
2022-10-17T06:57:03.202Z,98549.41
2022-10-17T07:01:31.795Z,98546.59
2022-10-17T07:05:35.501Z,98550.75
2022-10-17T07:09:37.764Z,98546.91
2022-10-17T07:13:40.107Z,98556.19
2022-10-17T07:17:42.214Z,98551.41
2022-10-17T07:21:44.633Z,98564.19
2022-10-17T07:25:47.695Z,98564.00
2022-10-17T07:29:51.043Z,98580.50
2022-10-17T07:34:00.299Z,98573.72
2022-10-17T07:38:03.026Z,98565.16
2022-10-17T07:42:05.344Z,98568.22
2022-10-17T07:46:08.310Z,98572.47
2022-10-17T07:50:10.459Z,98578.28
2022-10-17T07:54:12.525Z,98577.94
2022-10-17T07:58:14.894Z,98581.91
2022-10-17T08:02:25.748Z,98586.94
2022-10-17T08:06:27.757Z,98589.97
2022-10-17T08:10:29.779Z,98591.97
2022-10-17T08:14:31.818Z,98574.66
2022-10-17T08:18:38.748Z,98582.81
2022-10-17T08:22:40.939Z,98585.84
2022-10-17T08:26:44.586Z,98589.78
2022-10-17T08:30:48.157Z,98590.38
2022-10-17T08:34:50.439Z,98595.34
2022-10-17T08:38:53.118Z,98583.38
2022-10-17T08:43:07.870Z,98576.47
2022-10-17T08:47:15.557Z,98577.75
2022-10-17T08:51:22.720Z,98574.81
2022-10-17T08:55:34.096Z,98567.19
2022-10-17T08:59:36.069Z,98568.41
2022-10-17T09:04:09.192Z,98560.91
2022-10-17T09:08:29.519Z,98554.06
2022-10-17T09:12:50.539Z,98573.38
2022-10-17T09:17:04.673Z,98578.28
2022-10-17T09:21:19.401Z,98591.50
2022-10-17T09:25:21.986Z,98585.41
2022-10-17T09:29:29.598Z,98585.97
2022-10-17T09:33:59.452Z,98588.00
2022-10-17T09:38:01.468Z,98585.47
2022-10-17T09:42:03.743Z,98576.75
2022-10-17T09:46:24.489Z,98585.19
2022-10-17T09:50:28.351Z,98590.59
2022-10-17T09:54:41.359Z,98595.28
2022-10-17T09:58:45.956Z,98597.31
2022-10-17T10:02:48.053Z,98601.06
2022-10-17T10:07:05.624Z,98596.56
2022-10-17T10:11:13.331Z,98615.63
2022-10-17T10:15:35.523Z,98622.78
2022-10-17T10:19:38.848Z,98632.22
2022-10-17T10:23:46.399Z,98638.31
2022-10-17T10:27:48.543Z,98635.66
2022-10-17T10:31:52.005Z,98642.34
2022-10-17T10:36:01.822Z,98636.34
2022-10-17T10:40:18.479Z,98630.94
2022-10-17T10:44:25.062Z,98625.38
2022-10-17T10:48:34.925Z,98640.16
2022-10-17T10:52:53.638Z,98655.72
2022-10-17T10:57:03.294Z,98651.88
2022-10-17T11:01:19.174Z,98646.75
2022-10-17T11:05:39.570Z,98644.72
2022-10-17T11:10:14.012Z,98631.97
2022-10-17T11:14:40.487Z,98635.34
2022-10-17T11:18:52.507Z,98637.59
2022-10-17T11:23:01.545Z,98626.97
2022-10-17T11:27:05.740Z,98631.06
2022-10-17T11:31:13.433Z,98625.63
2022-10-17T11:35:26.614Z,98625.69
2022-10-17T11:43:53.222Z,98636.13
2022-10-17T11:47:55.271Z,98642.94
2022-10-17T11:52:31.541Z,98651.16
2022-10-17T11:57:06.977Z,98657.00
2022-10-17T12:01:31.248Z,98661.75
2022-10-17T12:05:48.215Z,98637.84
2022-10-17T12:10:07.437Z,98638.50
2022-10-17T12:14:45.570Z,98636.44
2022-10-17T12:18:48.662Z,98637.41
2022-10-17T12:22:53.047Z,98640.78
2022-10-17T12:26:57.020Z,98641.75
2022-10-17T12:31:02.862Z,98645.59
2022-10-17T12:35:05.230Z,98649.72
2022-10-17T12:39:11.621Z,98661.38
2022-10-17T12:43:13.611Z,98667.97
2022-10-17T12:47:15.593Z,98665.28
2022-10-17T12:51:37.421Z,98673.31
2022-10-17T12:55:40.305Z,98670.41
2022-10-17T12:59:44.015Z,98665.75
2022-10-17T13:03:48.878Z,98656.53
2022-10-17T13:07:52.466Z,98666.25
2022-10-17T13:11:57.438Z,98672.06
2022-10-17T13:15:59.494Z,98663.94
2022-10-17T13:20:01.839Z,98661.88
2022-10-17T13:24:21.013Z,98673.56
2022-10-17T13:28:23.750Z,98678.53
2022-10-17T13:32:35.021Z,98672.81
2022-10-17T13:36:37.110Z,98674.25
2022-10-17T13:40:49.902Z,98675.69
2022-10-17T13:44:52.513Z,98688.41
2022-10-17T13:48:54.508Z,98691.94
2022-10-17T13:53:16.996Z,98689.25
2022-10-17T13:57:30.877Z,98688.78
2022-10-17T14:01:33.981Z,98697.91
2022-10-17T14:05:36.012Z,98691.34
2022-10-17T14:09:38.023Z,98693.69
2022-10-17T14:13:40.852Z,98693.34
2022-10-17T14:17:45.597Z,98690.44
2022-10-17T14:21:53.780Z,98694.53
2022-10-17T14:26:07.921Z,98695.91
2022-10-17T14:30:51.648Z,98697.50
2022-10-17T14:34:52.029Z,98702.47
2022-10-17T14:38:53.954Z,98703.94
2022-10-17T14:43:02.985Z,98706.38
2022-10-17T14:47:38.132Z,98714.38
2022-10-17T14:51:35.973Z,98709.00
2022-10-17T14:55:59.305Z,98719.59
2022-10-17T15:00:01.451Z,98719.22
2022-10-17T15:04:03.777Z,98721.66
2022-10-17T15:08:13.462Z,98723.50
2022-10-17T15:12:18.736Z,98729.44
2022-10-17T15:16:24.541Z,98741.34
2022-10-17T15:20:29.400Z,98746.19
2022-10-17T15:24:31.387Z,98748.63
2022-10-17T15:28:33.410Z,98741.84
2022-10-17T15:32:35.420Z,98749.47
2022-10-17T15:36:41.986Z,98751.03
2022-10-17T15:40:44.204Z,98756.94
2022-10-17T15:44:49.446Z,98749.25
2022-10-17T15:48:53.439Z,98749.03
2022-10-17T15:52:55.425Z,98757.09
2022-10-17T15:56:57.930Z,98755.00
2022-10-17T16:01:00.048Z,98763.66
2022-10-17T16:05:02.090Z,98764.00
2022-10-17T16:09:04.127Z,98772.25
2022-10-17T16:13:06.154Z,98775.13
2022-10-17T16:17:26.274Z,98774.50
2022-10-17T16:21:32.451Z,98773.66
2022-10-17T16:25:34.950Z,98779.06
2022-10-17T16:29:36.938Z,98794.81
2022-10-17T16:33:38.923Z,98800.75
2022-10-17T16:37:40.941Z,98788.38
2022-10-17T16:41:43.068Z,98800.03
2022-10-17T16:45:45.106Z,98800.84
2022-10-17T16:49:47.258Z,98804.59
2022-10-17T16:53:52.689Z,98808.91
2022-10-17T16:57:54.708Z,98813.31
2022-10-17T17:01:56.783Z,98818.47
2022-10-17T17:05:58.781Z,98823.78
2022-10-17T17:10:00.820Z,98826.59
2022-10-17T17:14:04.270Z,98837.41
2022-10-17T17:18:06.797Z,98832.56
2022-10-17T17:22:09.018Z,98837.75
2022-10-17T17:26:20.396Z,98839.81
2022-10-17T17:30:22.473Z,98838.47
2022-10-17T17:34:24.641Z,98841.66
2022-10-17T17:38:29.589Z,98843.06
2022-10-17T17:42:31.580Z,98839.91
2022-10-17T17:46:33.645Z,98850.91
2022-10-17T17:50:40.300Z,98852.16
2022-10-17T17:54:42.335Z,98848.41
2022-10-17T17:58:45.867Z,98853.72
2022-10-17T18:02:47.876Z,98856.47
2022-10-17T18:06:49.908Z,98862.78
2022-10-17T18:10:56.389Z,98869.16
2022-10-17T18:14:58.420Z,98863.28
2022-10-17T18:19:06.673Z,98880.56
2022-10-17T18:23:10.133Z,98877.38
2022-10-17T18:27:15.817Z,98886.84
2022-10-17T18:31:24.288Z,98894.66
2022-10-17T18:35:26.299Z,98893.25
2022-10-17T18:39:28.628Z,98888.06
2022-10-17T18:43:32.816Z,98891.47
2022-10-17T18:47:34.801Z,98886.19
2022-10-17T18:51:37.050Z,98896.25
2022-10-17T18:55:39.581Z,98890.31
2022-10-17T18:59:41.689Z,98893.44
2022-10-17T19:03:45.833Z,98890.97
2022-10-17T19:07:47.901Z,98897.81
2022-10-17T19:11:50.009Z,98896.09
2022-10-17T19:15:52.058Z,98897.19
2022-10-17T19:19:55.061Z,98889.72
2022-10-17T19:24:03.760Z,98883.09
2022-10-17T19:28:05.779Z,98877.88
2022-10-17T19:32:15.580Z,98882.25
2022-10-17T19:36:21.713Z,98882.88
2022-10-17T19:40:23.729Z,98885.13
2022-10-17T19:44:26.462Z,98878.66
2022-10-17T19:48:32.485Z,98882.22
2022-10-17T19:52:34.571Z,98871.97
2022-10-17T19:56:43.002Z,98870.09
2022-10-17T20:00:50.428Z,98868.44
2022-10-17T20:04:54.630Z,98873.97
2022-10-17T20:09:17.079Z,98876.00
2022-10-17T20:13:19.602Z,98867.75
2022-10-17T20:17:21.671Z,98867.25
2022-10-17T20:21:31.435Z,98879.75
2022-10-17T20:25:34.471Z,98883.47
2022-10-17T20:29:36.452Z,98901.22
2022-10-17T20:33:38.491Z,98902.75
2022-10-17T20:37:42.662Z,98900.97
2022-10-17T20:41:45.582Z,98902.31
2022-10-17T20:45:51.276Z,98897.78
2022-10-17T20:49:54.051Z,98898.56
2022-10-17T20:57:58.840Z,98901.84
2022-10-17T21:02:00.910Z,98902.94
2022-10-17T21:06:03.823Z,98899.97
2022-10-17T21:10:30.694Z,98896.31
2022-10-17T21:14:28.615Z,98908.53
2022-10-17T21:18:30.605Z,98906.38
2022-10-17T21:22:35.909Z,98908.69
2022-10-17T21:26:39.473Z,98904.25
2022-10-17T21:30:41.459Z,98899.97
2022-10-17T21:34:43.492Z,98896.06
2022-10-17T21:38:47.225Z,98890.72
2022-10-17T21:42:49.212Z,98885.25
2022-10-17T21:46:52.121Z,98888.59
2022-10-17T21:51:00.587Z,98893.88
2022-10-17T21:55:02.643Z,98889.53
2022-10-17T21:59:05.097Z,98892.09
2022-10-17T22:03:08.515Z,98893.88
2022-10-17T22:07:10.507Z,98890.47
2022-10-17T22:11:16.111Z,98896.88
2022-10-17T22:15:18.126Z,98896.94
2022-10-17T22:19:24.652Z,98897.72
2022-10-17T22:23:26.696Z,98897.56
2022-10-17T22:27:29.059Z,98898.53
2022-10-17T22:31:31.445Z,98894.34
2022-10-17T22:35:33.412Z,98886.41
2022-10-17T22:39:35.421Z,98891.88
2022-10-17T22:43:37.693Z,98885.03
2022-10-17T22:47:39.700Z,98885.88
2022-10-17T22:51:41.701Z,98891.56
2022-10-17T22:55:53.368Z,98881.44
2022-10-17T22:59:55.364Z,98878.47
2022-10-17T23:03:57.456Z,98872.16
2022-10-17T23:07:59.479Z,98870.19
2022-10-17T23:12:01.503Z,98866.69
2022-10-17T23:16:03.867Z,98874.38
2022-10-17T23:20:06.470Z,98862.78
2022-10-17T23:24:08.580Z,98860.03
2022-10-17T23:28:11.174Z,98866.28
2022-10-17T23:32:13.157Z,98856.44
2022-10-17T23:36:17.060Z,98864.31
2022-10-17T23:40:19.237Z,98864.31
2022-10-17T23:44:22.398Z,98875.78
2022-10-17T23:48:24.377Z,98874.06
2022-10-17T23:52:26.394Z,98879.34
2022-10-17T23:56:28.797Z,98872.19
